Time;durP1;ratioP1;P1;durP2;ratioP2;P2;SDS_P1;SDS_P2;PMS_P1;PMS_P2;Temp;Humidity;BMP_temperature;BMP_pressure;BME280_temperature;BME280_humidity;BME280_pressure;Samples;Min_cycle;Max_cycle;Signal;HPM_P1;HPM_P2
2022/10/24 00:00:57;;;;;;;17.50;12.43;;;;;;;;;;5015716;28;20083;-71
2022/10/24 00:03:22;;;;;;;17.85;12.23;;;;;;;;;;5015539;28;20049;-71
2022/10/24 00:05:48;;;;;;;16.65;12.15;;;;;;;;;;5015662;28;20069;-71
2022/10/24 00:08:14;;;;;;;14.75;11.65;;;;;;;;;;5016783;28;20129;-71
2022/10/24 00:10:41;;;;;;;18.27;12.40;;;;;;;;;;5016738;28;20038;-71
2022/10/24 00:13:06;;;;;;;14.90;11.23;;;;;;;;;;5016738;28;20045;-71
2022/10/24 00:15:32;;;;;;;15.43;11.35;;;;;;;;;;5015711;28;20101;-71
2022/10/24 00:17:57;;;;;;;14.43;10.80;;;;;;;;;;5016250;28;20022;-72
2022/10/24 00:20:23;;;;;;;15.50;11.68;;;;;;;;;;5016330;28;20034;-72
2022/10/24 00:22:48;;;;;;;13.02;10.73;;;;;;;;;;5015332;28;20018;-72
2022/10/24 00:25:16;;;;;;;15.45;11.30;;;;;;;;;;5016388;28;20036;-72
2022/10/24 00:27:42;;;;;;;11.75;9.85;;;;;;;;;;5016328;28;20076;-72
2022/10/24 00:30:07;;;;;;;14.48;10.55;;;;;;;;;;5048224;28;20553;-72
2022/10/24 00:32:33;;;;;;;13.00;9.80;;;;;;;;;;5014955;28;20021;-73
2022/10/24 00:34:59;;;;;;;13.93;10.38;;;;;;;;;;5015832;28;20030;-72
2022/10/24 00:37:25;;;;;;;14.38;9.85;;;;;;;;;;5016171;28;20540;-71
2022/10/24 00:39:50;;;;;;;16.10;10.45;;;;;;;;;;5016247;28;20041;-71
2022/10/24 00:42:17;;;;;;;14.52;10.13;;;;;;;;;;5015900;28;20025;-71
2022/10/24 00:44:42;;;;;;;18.63;11.93;;;;;;;;;;5015855;28;20026;-67
2022/10/24 00:47:08;;;;;;;26.73;14.40;;;;;;;;;;5015824;28;20462;-68
2022/10/24 00:49:42;;;;;;;17.30;11.90;;;;;;;;;;5015859;28;20061;-66
2022/10/24 00:52:10;;;;;;;15.32;10.27;;;;;;;;;;5015840;28;20099;-66
2022/10/24 00:54:37;;;;;;;17.98;11.80;;;;;;;;;;5015885;28;20104;-67
2022/10/24 00:57:12;;;;;;;14.75;10.80;;;;;;;;;;5015875;28;20025;-68
2022/10/24 00:59:40;;;;;;;14.52;10.82;;;;;;;;;;5016175;28;20026;-67
2022/10/24 01:02:06;;;;;;;15.73;10.48;;;;;;;;;;5014384;28;20528;-66
2022/10/24 01:04:31;;;;;;;14.57;10.18;;;;;;;;;;5015511;28;20033;-66
2022/10/24 01:07:15;;;;;;;15.45;10.63;;;;;;;;;;5015904;28;20026;-68
2022/10/24 01:09:41;;;;;;;12.80;9.50;;;;;;;;;;5015479;28;20033;-67
2022/10/24 01:12:22;;;;;;;14.18;9.43;;;;;;;;;;5015548;28;20030;-66
2022/10/24 01:14:56;;;;;;;11.07;8.68;;;;;;;;;;5015522;28;20109;-68
2022/10/24 01:17:35;;;;;;;12.07;8.95;;;;;;;;;;5015781;28;20068;-66
2022/10/24 01:20:03;;;;;;;15.88;9.18;;;;;;;;;;5047188;28;20097;-67
2022/10/24 01:22:53;;;;;;;10.75;8.80;;;;;;;;;;5015429;28;20022;-66
2022/10/24 01:25:38;;;;;;;10.10;7.90;;;;;;;;;;5010125;28;20492;-67
2022/10/24 01:28:07;;;;;;;9.82;7.57;;;;;;;;;;5015465;28;20030;-67
2022/10/24 01:30:40;;;;;;;11.45;8.57;;;;;;;;;;5015266;28;20025;-68
2022/10/24 01:33:14;;;;;;;10.25;8.35;;;;;;;;;;5015349;28;20025;-67
2022/10/24 01:35:41;;;;;;;9.77;8.40;;;;;;;;;;5015166;28;20026;-66
2022/10/24 01:38:06;;;;;;;8.48;7.57;;;;;;;;;;5015468;28;20081;-66
2022/10/24 01:40:34;;;;;;;8.95;7.75;;;;;;;;;;5015447;28;20057;-66
2022/10/24 01:43:01;;;;;;;10.90;7.85;;;;;;;;;;5015337;28;20013;-73
2022/10/24 01:45:32;;;;;;;10.40;7.30;;;;;;;;;;5014840;28;20037;-73
2022/10/24 01:47:58;;;;;;;8.07;6.90;;;;;;;;;;5015244;28;20022;-72
2022/10/24 01:50:25;;;;;;;7.63;6.85;;;;;;;;;;5014881;28;20108;-72
2022/10/24 01:52:51;;;;;;;8.95;6.72;;;;;;;;;;5014536;28;20475;-72
2022/10/24 01:55:17;;;;;;;7.40;6.63;;;;;;;;;;5014973;28;20109;-73
2022/10/24 01:57:42;;;;;;;8.23;6.30;;;;;;;;;;5014486;28;20092;-68
2022/10/24 02:00:08;;;;;;;7.10;6.40;;;;;;;;;;5014702;28;20017;-67
2022/10/24 02:02:41;;;;;;;9.02;6.97;;;;;;;;;;5014924;28;20502;-66
2022/10/24 02:05:11;;;;;;;7.90;7.10;;;;;;;;;;5014277;28;20061;-66
2022/10/24 02:07:38;;;;;;;8.25;6.97;;;;;;;;;;5014388;28;20073;-68
2022/10/24 02:10:10;;;;;;;10.68;6.68;;;;;;;;;;5014222;28;20057;-68
2022/10/24 02:12:37;;;;;;;8.68;6.85;;;;;;;;;;5014159;28;20030;-68
2022/10/24 02:15:24;;;;;;;7.90;6.53;;;;;;;;;;5046421;28;20021;-69
2022/10/24 02:17:50;;;;;;;8.25;6.88;;;;;;;;;;5014032;28;20061;-68
2022/10/24 02:20:15;;;;;;;10.45;6.70;;;;;;;;;;5029154;28;20022;-68
2022/10/24 02:22:46;;;;;;;9.35;7.53;;;;;;;;;;5046511;28;20124;-68
2022/10/24 02:25:15;;;;;;;8.65;7.07;;;;;;;;;;5014062;28;20038;-69
2022/10/24 02:27:51;;;;;;;9.02;6.70;;;;;;;;;;5014031;28;20045;-68
2022/10/24 02:30:21;;;;;;;9.48;7.03;;;;;;;;;;5013851;28;20033;-68
2022/10/24 02:32:56;;;;;;;9.05;6.72;;;;;;;;;;5013917;28;20064;-69
2022/10/24 02:35:25;;;;;;;8.82;7.65;;;;;;;;;;5045738;28;20026;-68
2022/10/24 02:37:52;;;;;;;9.35;6.85;;;;;;;;;;5013726;28;20042;-68
2022/10/24 02:40:19;;;;;;;7.38;6.43;;;;;;;;;;5014196;28;20454;-70
2022/10/24 02:42:46;;;;;;;8.15;6.10;;;;;;;;;;5014055;28;20065;-68
2022/10/24 02:45:14;;;;;;;7.63;6.32;;;;;;;;;;5013720;28;20061;-68
2022/10/24 02:47:39;;;;;;;8.07;6.28;;;;;;;;;;5012945;28;20018;-69
2022/10/24 02:50:06;;;;;;;7.00;6.30;;;;;;;;;;5014078;28;20032;-69
2022/10/24 02:52:31;;;;;;;10.95;7.00;;;;;;;;;;5012785;28;20041;-69
2022/10/24 02:54:57;;;;;;;12.45;8.23;;;;;;;;;;5014305;28;20410;-68
2022/10/24 02:57:24;;;;;;;9.02;6.78;;;;;;;;;;5045672;28;20014;-69
2022/10/24 02:59:49;;;;;;;7.03;6.32;;;;;;;;;;5013922;28;20045;-67
2022/10/24 03:02:14;;;;;;;10.93;7.05;;;;;;;;;;5012969;28;20030;-67
2022/10/24 03:04:41;;;;;;;8.20;6.60;;;;;;;;;;5045954;28;20042;-66
2022/10/24 03:07:06;;;;;;;9.95;7.18;;;;;;;;;;5012967;28;20476;-68
2022/10/24 03:09:32;;;;;;;8.05;6.65;;;;;;;;;;5013936;28;20065;-67
2022/10/24 03:11:58;;;;;;;7.68;6.90;;;;;;;;;;5013707;28;20033;-66
2022/10/24 03:14:23;;;;;;;8.55;6.97;;;;;;;;;;5013953;28;20417;-66
2022/10/24 03:16:48;;;;;;;9.18;7.10;;;;;;;;;;5013906;28;20022;-68
2022/10/24 03:19:15;;;;;;;8.75;6.63;;;;;;;;;;5013904;28;20029;-66
2022/10/24 03:21:41;;;;;;;7.43;6.55;;;;;;;;;;5013880;28;20108;-67
2022/10/24 03:24:07;;;;;;;9.38;6.25;;;;;;;;;;5013885;28;20052;-68
2022/10/24 03:26:32;;;;;;;9.07;5.75;;;;;;;;;;5012855;28;20365;-68
2022/10/24 03:28:58;;;;;;;8.15;6.60;;;;;;;;;;5013611;28;20026;-67
2022/10/24 03:31:23;;;;;;;9.13;6.53;;;;;;;;;;5011983;28;20327;-67
2022/10/24 03:33:49;;;;;;;10.02;6.95;;;;;;;;;;5013869;28;20057;-67
2022/10/24 03:36:15;;;;;;;7.75;7.00;;;;;;;;;;5013695;28;20045;-67
2022/10/24 03:38:40;;;;;;;10.48;7.22;;;;;;;;;;5012899;28;20042;-68
2022/10/24 03:41:07;;;;;;;7.97;6.75;;;;;;;;;;5013532;28;20026;-67
2022/10/24 03:43:32;;;;;;;9.10;7.07;;;;;;;;;;5013649;28;20030;-73
2022/10/24 03:45:58;;;;;;;9.27;6.30;;;;;;;;;;5013555;28;20040;-72
2022/10/24 03:48:24;;;;;;;9.73;6.80;;;;;;;;;;5013654;28;20038;-73
2022/10/24 03:50:55;;;;;;;11.00;7.82;;;;;;;;;;5015440;28;20025;-73
2022/10/24 03:53:21;;;;;;;10.98;7.57;;;;;;;;;;5017203;28;20037;-75
2022/10/24 03:55:46;;;;;;;11.20;7.00;;;;;;;;;;5015614;28;20022;-72
2022/10/24 03:58:11;;;;;;;8.77;7.65;;;;;;;;;;5016866;28;20026;-68
2022/10/24 04:00:39;;;;;;;10.02;7.53;;;;;;;;;;5016847;28;20109;-69
2022/10/24 04:03:08;;;;;;;10.18;7.22;;;;;;;;;;5015791;28;20041;-68
2022/10/24 04:05:35;;;;;;;9.23;6.95;;;;;;;;;;5016914;28;20036;-68
2022/10/24 04:08:00;;;;;;;10.73;7.15;;;;;;;;;;5016974;28;20513;-67
2022/10/24 04:10:26;;;;;;;8.10;6.65;;;;;;;;;;5016838;28;20153;-69
2022/10/24 04:12:52;;;;;;;9.68;7.13;;;;;;;;;;5016419;28;20022;-69
2022/10/24 04:15:17;;;;;;;10.40;7.40;;;;;;;;;;5016581;28;20084;-69
2022/10/24 04:17:42;;;;;;;9.70;7.22;;;;;;;;;;5016932;28;20097;-72
2022/10/24 04:20:08;;;;;;;8.35;6.88;;;;;;;;;;5015340;28;20033;-70
2022/10/24 04:22:33;;;;;;;9.40;7.05;;;;;;;;;;5016929;28;20033;-69
2022/10/24 04:24:59;;;;;;;10.82;7.32;;;;;;;;;;5016401;28;20026;-68
2022/10/24 04:27:24;;;;;;;11.00;7.20;;;;;;;;;;5016507;28;20022;-69
2022/10/24 04:29:50;;;;;;;7.82;6.93;;;;;;;;;;5016449;28;20037;-70
2022/10/24 04:32:15;;;;;;;7.53;6.68;;;;;;;;;;5016492;28;20026;-69
2022/10/24 04:34:40;;;;;;;9.02;6.85;;;;;;;;;;5015168;28;20068;-69
2022/10/24 04:37:06;;;;;;;9.35;6.20;;;;;;;;;;4996022;28;20038;-69
2022/10/24 04:39:31;;;;;;;6.25;5.10;;;;;;;;;;5013730;28;20033;-69
2022/10/24 04:41:56;;;;;;;5.93;5.20;;;;;;;;;;4994637;28;20061;-69
2022/10/24 04:44:22;;;;;;;5.78;4.97;;;;;;;;;;5012418;28;20034;-69
2022/10/24 04:46:48;;;;;;;7.10;5.60;;;;;;;;;;5012251;28;20026;-70
2022/10/24 04:49:13;;;;;;;8.13;6.40;;;;;;;;;;5013754;28;20045;-69
2022/10/24 04:51:39;;;;;;;9.40;6.60;;;;;;;;;;5013894;28;20030;-69
2022/10/24 04:54:07;;;;;;;7.00;6.10;;;;;;;;;;5014777;28;20026;-70
2022/10/24 04:56:33;;;;;;;9.18;5.80;;;;;;;;;;5012614;28;20025;-68
2022/10/24 04:59:00;;;;;;;6.57;5.88;;;;;;;;;;5013723;28;20034;-70
2022/10/24 05:01:25;;;;;;;6.57;5.97;;;;;;;;;;5014077;28;20092;-70
2022/10/24 05:03:50;;;;;;;10.32;7.10;;;;;;;;;;5012808;28;20057;-69
2022/10/24 05:06:16;;;;;;;9.07;7.38;;;;;;;;;;5014572;28;20024;-69
2022/10/24 05:08:42;;;;;;;10.02;7.32;;;;;;;;;;5013748;28;20037;-68
2022/10/24 05:11:10;;;;;;;10.93;7.13;;;;;;;;;;5012918;28;20026;-70
2022/10/24 05:13:36;;;;;;;10.95;7.45;;;;;;;;;;5013172;28;20362;-70
2022/10/24 05:16:01;;;;;;;10.52;7.55;;;;;;;;;;5013974;28;20016;-69
2022/10/24 05:18:26;;;;;;;15.73;8.00;;;;;;;;;;5014260;28;20041;-68
2022/10/24 05:20:54;;;;;;;11.07;7.65;;;;;;;;;;5013753;28;20473;-73
2022/10/24 05:23:20;;;;;;;10.82;7.88;;;;;;;;;;5014017;28;20026;-72
2022/10/24 05:25:45;;;;;;;10.90;7.63;;;;;;;;;;5014147;28;20018;-73
2022/10/24 05:28:10;;;;;;;8.18;7.13;;;;;;;;;;5014071;28;20038;-73
2022/10/24 05:30:35;;;;;;;10.57;7.22;;;;;;;;;;5013616;28;20087;-73
2022/10/24 05:33:03;;;;;;;9.07;6.95;;;;;;;;;;5014371;28;20032;-73
2022/10/24 05:35:28;;;;;;;9.48;7.20;;;;;;;;;;5014982;28;20068;-73
2022/10/24 05:37:54;;;;;;;7.60;6.90;;;;;;;;;;5013564;28;20050;-73
2022/10/24 05:40:19;;;;;;;11.93;7.32;;;;;;;;;;5014032;28;20465;-73
2022/10/24 05:42:44;;;;;;;9.35;7.53;;;;;;;;;;5014833;28;20029;-73
2022/10/24 05:45:10;;;;;;;11.13;7.80;;;;;;;;;;5014661;28;20367;-73
2022/10/24 05:47:36;;;;;;;14.88;8.60;;;;;;;;;;5014647;28;20160;-73
2022/10/24 05:50:02;;;;;;;13.15;9.88;;;;;;;;;;5014680;28;20045;-73
2022/10/24 05:52:28;;;;;;;16.27;10.27;;;;;;;;;;5013211;28;20033;-73
2022/10/24 05:54:53;;;;;;;11.95;8.63;;;;;;;;;;5013284;28;20386;-73
2022/10/24 05:57:18;;;;;;;12.30;8.88;;;;;;;;;;5014450;28;20022;-73
2022/10/24 05:59:43;;;;;;;12.45;8.77;;;;;;;;;;5014462;28;20018;-72
2022/10/24 06:02:16;;;;;;;12.45;9.50;;;;;;;;;;5014426;28;20026;-72
2022/10/24 06:04:41;;;;;;;12.98;9.13;;;;;;;;;;5014598;28;20030;-73
2022/10/24 06:07:06;;;;;;;12.85;9.77;;;;;;;;;;5014338;28;20115;-73
2022/10/24 06:09:31;;;;;;;11.82;9.57;;;;;;;;;;5014331;28;20034;-73
2022/10/24 06:11:57;;;;;;;15.27;10.60;;;;;;;;;;5014072;28;20026;-71
2022/10/24 06:14:22;;;;;;;19.45;12.15;;;;;;;;;;5013647;28;20025;-73
2022/10/24 06:16:47;;;;;;;17.08;12.18;;;;;;;;;;5014165;28;20485;-73
2022/10/24 06:19:13;;;;;;;16.92;12.82;;;;;;;;;;5014141;28;20049;-73
2022/10/24 06:21:38;;;;;;;17.40;12.45;;;;;;;;;;5014134;28;20022;-73
2022/10/24 06:24:04;;;;;;;22.83;14.10;;;;;;;;;;5014233;28;20436;-73
2022/10/24 06:26:30;;;;;;;19.48;13.82;;;;;;;;;;5014077;28;20499;-72
2022/10/24 06:28:55;;;;;;;19.63;13.18;;;;;;;;;;5014035;28;20044;-73
2022/10/24 06:31:22;;;;;;;20.40;13.93;;;;;;;;;;5013917;28;20037;-73
2022/10/24 06:33:47;;;;;;;19.70;14.07;;;;;;;;;;5013924;28;20474;-72
2022/10/24 06:36:13;;;;;;;18.58;13.82;;;;;;;;;;5013737;28;20048;-73
2022/10/24 06:38:39;;;;;;;17.63;13.50;;;;;;;;;;5013870;28;20534;-71
2022/10/24 06:41:08;;;;;;;19.10;15.05;;;;;;;;;;5013887;28;20037;-73
2022/10/24 06:43:34;;;;;;;21.20;15.27;;;;;;;;;;5013832;28;20021;-73
2022/10/24 06:46:07;;;;;;;22.90;16.42;;;;;;;;;;5013728;28;20054;-72
2022/10/24 06:48:34;;;;;;;23.85;16.60;;;;;;;;;;5013853;28;20052;-73
2022/10/24 06:50:59;;;;;;;22.52;16.45;;;;;;;;;;5013778;28;20386;-72
2022/10/24 06:53:24;;;;;;;20.45;15.68;;;;;;;;;;5012859;28;20026;-73
2022/10/24 06:55:50;;;;;;;22.40;16.48;;;;;;;;;;5012966;28;20022;-73
2022/10/24 06:58:15;;;;;;;21.60;16.60;;;;;;;;;;5013862;28;20026;-73
2022/10/24 07:00:40;;;;;;;23.88;17.45;;;;;;;;;;5013666;28;20502;-74
2022/10/24 07:03:12;;;;;;;27.67;19.08;;;;;;;;;;5013722;28;20026;-73
2022/10/24 07:05:38;;;;;;;27.20;19.25;;;;;;;;;;5013679;28;20079;-73
2022/10/24 07:08:03;;;;;;;27.63;19.67;;;;;;;;;;5012456;28;20380;-73
2022/10/24 07:10:29;;;;;;;30.65;19.55;;;;;;;;;;5012265;28;20029;-73
2022/10/24 07:12:54;;;;;;;22.15;17.25;;;;;;;;;;5012424;28;20014;-73
2022/10/24 07:15:20;;;;;;;23.92;16.67;;;;;;;;;;5012318;28;20437;-73
2022/10/24 07:17:45;;;;;;;19.48;14.52;;;;;;;;;;5013550;28;20024;-73
2022/10/24 07:20:11;;;;;;;19.92;15.15;;;;;;;;;;5013558;28;20080;-73
2022/10/24 07:22:36;;;;;;;19.25;15.18;;;;;;;;;;5013564;28;20153;-73
2022/10/24 07:25:02;;;;;;;19.42;14.05;;;;;;;;;;5014816;28;20061;-72
2022/10/24 07:27:28;;;;;;;18.38;14.00;;;;;;;;;;5017394;28;20080;-73
2022/10/24 07:29:53;;;;;;;16.83;12.77;;;;;;;;;;5015908;28;20040;-72
2022/10/24 07:32:19;;;;;;;17.95;12.65;;;;;;;;;;5017164;28;20053;-73
2022/10/24 07:34:46;;;;;;;14.75;11.63;;;;;;;;;;5017206;28;20381;-73
2022/10/24 07:37:12;;;;;;;14.90;11.73;;;;;;;;;;5015767;28;20038;-73
2022/10/24 07:39:38;;;;;;;21.13;14.98;;;;;;;;;;5017197;28;20366;-71
2022/10/24 07:42:03;;;;;;;16.90;12.07;;;;;;;;;;5016076;28;20079;-73
2022/10/24 07:44:29;;;;;;;21.40;14.57;;;;;;;;;;5016987;28;20438;-73
2022/10/24 07:46:54;;;;;;;21.95;13.98;;;;;;;;;;5016995;28;20018;-73
2022/10/24 07:49:22;;;;;;;20.98;13.50;;;;;;;;;;5016926;28;20036;-72
2022/10/24 07:51:47;;;;;;;20.08;10.32;;;;;;;;;;5015966;28;20475;-73
2022/10/24 07:54:12;;;;;;;12.00;8.82;;;;;;;;;;5016771;28;20057;-73
2022/10/24 07:56:38;;;;;;;14.75;9.85;;;;;;;;;;5016942;28;20381;-73
2022/10/24 07:59:03;;;;;;;14.85;8.98;;;;;;;;;;5015421;28;20080;-73
2022/10/24 08:01:29;;;;;;;11.60;8.38;;;;;;;;;;5016738;28;20052;-73
2022/10/24 08:03:54;;;;;;;10.48;8.70;;;;;;;;;;5016613;28;20038;-73
2022/10/24 08:06:21;;;;;;;12.48;9.15;;;;;;;;;;5016587;28;20034;-73
2022/10/24 08:08:47;;;;;;;13.88;9.63;;;;;;;;;;5016545;28;20029;-72
2022/10/24 08:11:13;;;;;;;8.77;7.10;;;;;;;;;;5015284;28;20421;-73
2022/10/24 08:13:40;;;;;;;10.63;8.98;;;;;;;;;;5016491;28;20462;-73
2022/10/24 08:16:05;;;;;;;14.45;10.10;;;;;;;;;;5016568;28;20018;-73
2022/10/24 08:18:31;;;;;;;12.75;8.55;;;;;;;;;;5016519;28;20482;-73
2022/10/24 08:20:57;;;;;;;7.88;5.43;;;;;;;;;;5016418;28;20421;-73
2022/10/24 08:23:23;;;;;;;9.52;6.57;;;;;;;;;;5014991;28;20034;-72
2022/10/24 08:25:48;;;;;;;7.38;5.20;;;;;;;;;;5014947;28;20084;-73
2022/10/24 08:28:13;;;;;;;8.50;6.45;;;;;;;;;;5016113;28;20034;-73
2022/10/24 08:30:39;;;;;;;10.45;7.20;;;;;;;;;;5016019;28;20022;-74
2022/10/24 08:33:04;;;;;;;10.85;6.93;;;;;;;;;;5016054;28;20359;-73
2022/10/24 08:35:29;;;;;;;11.23;6.68;;;;;;;;;;5014143;28;20030;-73
2022/10/24 08:38:00;;;;;;;7.90;5.28;;;;;;;;;;5014444;28;20049;-74
2022/10/24 08:40:26;;;;;;;5.55;4.80;;;;;;;;;;5014784;28;20030;-74
2022/10/24 08:42:52;;;;;;;5.47;4.65;;;;;;;;;;5015871;28;20026;-74
2022/10/24 08:45:21;;;;;;;6.40;5.70;;;;;;;;;;5015176;28;20034;-73
2022/10/24 08:48:23;;;;;;;5.30;4.82;;;;;;;;;;5015913;28;20125;-74
2022/10/24 08:50:50;;;;;;;5.03;4.53;;;;;;;;;;4955275;29;20069;-74
2022/10/24 08:53:23;;;;;;;5.78;4.30;;;;;;;;;;5004116;28;20057;-73
2022/10/24 08:55:55;;;;;;;5.38;4.05;;;;;;;;;;5014351;28;20021;-74
2022/10/24 08:58:35;;;;;;;5.20;4.70;;;;;;;;;;5015573;28;20053;-74
2022/10/24 09:01:03;;;;;;;6.03;3.95;;;;;;;;;;5014254;28;20088;-74
2022/10/24 09:03:34;;;;;;;6.22;3.92;;;;;;;;;;5015519;28;20544;-74
2022/10/24 09:06:06;;;;;;;5.88;3.65;;;;;;;;;;5014186;28;20040;-74
2022/10/24 09:08:40;;;;;;;5.18;4.18;;;;;;;;;;5015467;28;20042;-73
2022/10/24 09:11:06;;;;;;;7.32;3.92;;;;;;;;;;5015310;28;20026;-73
2022/10/24 09:13:34;;;;;;;4.97;4.47;;;;;;;;;;5015378;28;20018;-74
2022/10/24 09:16:00;;;;;;;4.22;3.92;;;;;;;;;;5015362;28;20092;-73
2022/10/24 09:18:26;;;;;;;5.10;4.07;;;;;;;;;;5015324;28;20068;-73
2022/10/24 09:20:52;;;;;;;5.25;3.33;;;;;;;;;;5014150;28;20030;-74
2022/10/24 09:23:18;;;;;;;4.57;3.42;;;;;;;;;;5015095;28;20450;-74
2022/10/24 09:25:46;;;;;;;6.05;3.60;;;;;;;;;;5015052;28;20537;-73
2022/10/24 09:28:12;;;;;;;4.57;3.30;;;;;;;;;;5015005;28;20022;-74
2022/10/24 09:30:37;;;;;;;4.05;2.97;;;;;;;;;;5013677;28;20022;-73
2022/10/24 09:33:20;;;;;;;3.72;3.35;;;;;;;;;;5014961;28;20018;-73
2022/10/24 09:35:46;;;;;;;3.25;2.92;;;;;;;;;;5014713;28;20026;-75
2022/10/24 09:38:26;;;;;;;5.07;3.03;;;;;;;;;;5014806;28;20041;-74
2022/10/24 09:40:54;;;;;;;4.10;3.25;;;;;;;;;;5014786;28;20030;-73
2022/10/24 09:46:37;;;;;;;4.10;3.22;;;;;;;;;;5040005;23;20057;-72
2022/10/24 09:49:11;;;;;;;4.35;3.42;;;;;;;;;;5033590;28;20465;-73
2022/10/24 09:51:48;;;;;;;5.47;3.20;;;;;;;;;;5034513;28;20040;-73
2022/10/24 09:54:16;;;;;;;3.33;3.03;;;;;;;;;;5016984;28;20400;-72
2022/10/24 09:56:42;;;;;;;3.83;3.25;;;;;;;;;;5034466;28;20475;-73
2022/10/24 09:59:26;;;;;;;3.60;3.20;;;;;;;;;;5016719;28;20103;-73
2022/10/24 10:02:17;;;;;;;4.63;3.75;;;;;;;;;;5016767;28;20052;-72
2022/10/24 10:04:44;;;;;;;4.72;3.53;;;;;;;;;;4991077;28;20037;-72
2022/10/24 10:07:10;;;;;;;5.45;3.22;;;;;;;;;;5034168;28;20171;-73
2022/10/24 10:09:41;;;;;;;3.42;3.15;;;;;;;;;;5034117;28;20113;-72
2022/10/24 10:12:07;;;;;;;;;;;;;;;;;;5016693;28;20044;-73
2022/10/24 10:14:39;;;;;;;3.45;3.15;;;;;;;;;;5034045;28;19912;-73
2022/10/24 10:17:05;;;;;;;2.88;2.67;;;;;;;;;;5033916;28;20025;-73
2022/10/24 10:19:44;;;;;;;3.70;2.75;;;;;;;;;;5016115;28;20017;-72
2022/10/24 10:22:30;;;;;;;3.85;2.97;;;;;;;;;;5016202;28;20091;-72
2022/10/24 10:24:58;;;;;;;3.75;3.22;;;;;;;;;;5033856;28;20080;-71
2022/10/24 10:27:31;;;;;;;5.18;2.80;;;;;;;;;;5033850;28;20025;-72
2022/10/24 10:30:07;;;;;;;3.20;2.80;;;;;;;;;;5033793;28;20056;-72
2022/10/24 10:32:38;;;;;;;3.20;2.90;;;;;;;;;;5033664;28;20034;-72
2022/10/24 10:35:12;;;;;;;2.92;2.42;;;;;;;;;;5033724;28;20151;-73
2022/10/24 10:37:43;;;;;;;3.17;2.45;;;;;;;;;;5033750;28;20040;-72
2022/10/24 10:43:11;;;;;;;2.70;2.50;;;;;;;;;;4966617;23;20055;-74
2022/10/24 10:45:44;;;;;;;4.22;2.55;;;;;;;;;;4955561;29;20729;-74
2022/10/24 10:48:09;;;;;;;2.70;2.50;;;;;;;;;;4955560;29;20463;-74
2022/10/24 10:50:41;;;;;;;2.85;2.60;;;;;;;;;;4938267;29;20034;-74
2022/10/24 10:53:25;;;;;;;3.00;2.70;;;;;;;;;;4938466;29;20070;-74
2022/10/24 10:55:50;;;;;;;5.45;2.47;;;;;;;;;;4938223;29;20027;-74
2022/10/24 10:58:28;;;;;;;3.95;2.53;;;;;;;;;;4938220;28;20029;-74
2022/10/24 11:01:08;;;;;;;3.03;2.83;;;;;;;;;;4959408;29;20599;-74
2022/10/24 11:03:39;;;;;;;4.03;2.13;;;;;;;;;;4942065;29;20034;-75
2022/10/24 11:06:10;;;;;;;2.35;2.17;;;;;;;;;;4959446;29;20039;-74
2022/10/24 11:08:44;;;;;;;3.08;2.22;;;;;;;;;;4959383;29;20063;-74
2022/10/24 11:11:13;;;;;;;2.65;2.42;;;;;;;;;;4959212;29;20487;-74
2022/10/24 11:13:45;;;;;;;3.15;2.15;;;;;;;;;;4959167;29;20538;-74
2022/10/24 11:16:18;;;;;;;2.47;2.28;;;;;;;;;;4942160;29;20028;-74
2022/10/24 11:18:46;;;;;;;2.30;2.10;;;;;;;;;;4959170;29;20042;-74
2022/10/24 11:21:12;;;;;;;1.88;1.73;;;;;;;;;;4958820;29;20027;-74
2022/10/24 11:23:52;;;;;;;4.03;2.58;;;;;;;;;;4959116;29;20171;-74
2022/10/24 11:26:36;;;;;;;2.92;2.20;;;;;;;;;;4958930;29;20479;-74
2022/10/24 11:29:07;;;;;;;2.58;2.33;;;;;;;;;;4958988;29;20371;-74
2022/10/24 11:31:38;;;;;;;3.13;1.95;;;;;;;;;;4958800;29;20034;-74
2022/10/24 11:34:11;;;;;;;4.55;1.98;;;;;;;;;;4957181;29;20039;-74
2022/10/24 11:36:46;;;;;;;3.20;2.05;;;;;;;;;;4957836;29;20059;-74
2022/10/24 11:39:33;;;;;;;2.42;2.13;;;;;;;;;;4958131;29;20151;-74
2022/10/24 11:42:26;;;;;;;3.72;2.08;;;;;;;;;;4958035;28;20081;-74
2022/10/24 11:45:03;;;;;;;2.35;1.98;;;;;;;;;;4955770;29;20047;-74
2022/10/24 11:47:48;;;;;;;3.25;2.20;;;;;;;;;;4957267;29;20042;-74
2022/10/24 11:50:20;;;;;;;4.15;2.42;;;;;;;;;;4956856;29;20036;-74
2022/10/24 11:52:47;;;;;;;2.78;2.50;;;;;;;;;;4957572;29;20043;-74
2022/10/24 11:55:15;;;;;;;4.30;2.38;;;;;;;;;;4957358;29;20102;-74
2022/10/24 11:57:43;;;;;;;4.70;2.50;;;;;;;;;;4957316;29;20391;-74
2022/10/24 12:00:15;;;;;;;3.33;2.75;;;;;;;;;;4957103;29;20457;-73
2022/10/24 12:03:10;;;;;;;4.18;2.72;;;;;;;;;;4940263;29;20479;-72
2022/10/24 12:06:04;;;;;;;2.60;1.88;;;;;;;;;;4948663;29;20089;-73
2022/10/24 12:08:49;;;;;;;2.45;2.20;;;;;;;;;;4921773;29;20047;-74
2022/10/24 12:11:29;;;;;;;3.72;1.33;;;;;;;;;;4955950;28;20023;-74
2022/10/24 12:14:03;;;;;;;4.10;2.13;;;;;;;;;;4939590;29;20126;-73
2022/10/24 12:16:55;;;;;;;3.45;2.42;;;;;;;;;;4939945;29;20024;-74
2022/10/24 12:19:21;;;;;;;3.53;2.38;;;;;;;;;;4941617;29;20122;-73
2022/10/24 12:21:50;;;;;;;4.75;2.40;;;;;;;;;;4957020;29;20453;-73
2022/10/24 12:24:21;;;;;;;3.45;2.63;;;;;;;;;;4957275;29;20051;-76
2022/10/24 12:26:54;;;;;;;3.72;2.33;;;;;;;;;;4956743;29;20106;-75
2022/10/24 12:29:22;;;;;;;2.67;2.47;;;;;;;;;;4939811;29;20070;-75
2022/10/24 12:31:47;;;;;;;3.05;2.45;;;;;;;;;;4956807;29;20463;-72
2022/10/24 12:34:21;;;;;;;2.78;2.40;;;;;;;;;;4940047;29;20030;-73
2022/10/24 12:37:10;;;;;;;4.85;2.38;;;;;;;;;;4956872;29;20507;-72
2022/10/24 12:39:36;;;;;;;4.82;2.53;;;;;;;;;;4939400;29;20093;-73
2022/10/24 12:42:01;;;;;;;5.35;2.63;;;;;;;;;;4951256;28;20051;-72
2022/10/24 12:44:33;;;;;;;2.45;2.25;;;;;;;;;;4976074;28;20439;-72
2022/10/24 12:46:59;;;;;;;2.38;2.15;;;;;;;;;;4976093;28;20426;-73
2022/10/24 12:49:31;;;;;;;6.03;2.15;;;;;;;;;;4975938;28;20086;-74
2022/10/24 12:51:58;;;;;;;2.63;2.42;;;;;;;;;;4973898;28;20101;-74
2022/10/24 12:54:40;;;;;;;3.65;2.28;;;;;;;;;;4974393;28;20073;-74
2022/10/24 12:57:07;;;;;;;4.30;2.78;;;;;;;;;;4975598;28;20077;-74
2022/10/24 12:59:43;;;;;;;2.38;2.15;;;;;;;;;;4975788;28;20050;-74
2022/10/24 13:02:09;;;;;;;6.63;3.25;;;;;;;;;;4974306;28;20090;-72
2022/10/24 13:04:34;;;;;;;6.70;3.07;;;;;;;;;;4975523;28;20023;-73
2022/10/24 13:07:02;;;;;;;2.78;2.53;;;;;;;;;;4975191;28;20336;-71
2022/10/24 13:09:36;;;;;;;3.13;2.08;;;;;;;;;;4975102;28;20026;-72
2022/10/24 13:12:15;;;;;;;1.90;1.70;;;;;;;;;;4975812;28;20031;-73
2022/10/24 13:14:46;;;;;;;4.43;2.67;;;;;;;;;;4976243;28;20053;-72
2022/10/24 13:17:12;;;;;;;2.47;2.28;;;;;;;;;;4975315;28;20027;-72
2022/10/24 13:19:37;;;;;;;3.15;1.90;;;;;;;;;;4974756;28;20383;-72
2022/10/24 13:22:03;;;;;;;4.45;3.05;;;;;;;;;;4975964;28;20114;-73
2022/10/24 13:24:34;;;;;;;3.75;2.50;;;;;;;;;;4975092;28;20030;-73
2022/10/24 13:27:02;;;;;;;4.28;2.88;;;;;;;;;;4974799;28;20034;-73
2022/10/24 13:29:27;;;;;;;4.53;2.75;;;;;;;;;;4976022;28;20038;-73
2022/10/24 13:31:54;;;;;;;3.78;2.60;;;;;;;;;;4975975;28;20039;-72
2022/10/24 13:34:24;;;;;;;3.95;2.40;;;;;;;;;;4974652;28;20022;-74
2022/10/24 13:36:56;;;;;;;5.25;2.50;;;;;;;;;;4974711;28;20035;-73
2022/10/24 13:39:23;;;;;;;3.38;2.70;;;;;;;;;;4975806;28;20035;-73
2022/10/24 13:41:54;;;;;;;2.80;2.50;;;;;;;;;;4972984;28;20038;-72
2022/10/24 13:44:32;;;;;;;5.07;2.70;;;;;;;;;;4973575;28;20078;-73
2022/10/24 13:47:00;;;;;;;4.72;2.95;;;;;;;;;;4973732;28;20042;-72
2022/10/24 13:49:36;;;;;;;3.63;2.75;;;;;;;;;;4974569;28;20018;-73
2022/10/24 13:52:06;;;;;;;4.15;2.65;;;;;;;;;;4974802;28;20130;-72
2022/10/24 13:54:34;;;;;;;7.13;3.35;;;;;;;;;;4974347;28;20026;-73
2022/10/24 13:56:59;;;;;;;4.82;2.67;;;;;;;;;;4975128;28;20031;-73
2022/10/24 13:59:30;;;;;;;4.80;2.72;;;;;;;;;;4975108;28;20368;-73
2022/10/24 14:01:57;;;;;;;8.05;2.78;;;;;;;;;;4974865;28;20113;-73
2022/10/24 14:04:23;;;;;;;4.13;2.90;;;;;;;;;;4974663;28;20671;-73
2022/10/24 14:06:49;;;;;;;5.00;3.13;;;;;;;;;;4974213;28;20045;-73
2022/10/24 14:09:14;;;;;;;7.20;3.35;;;;;;;;;;4972996;28;20022;-73
2022/10/24 14:11:41;;;;;;;4.00;3.22;;;;;;;;;;4973049;28;20062;-73
2022/10/24 14:14:14;;;;;;;6.47;3.75;;;;;;;;;;4973137;28;20015;-74
2022/10/24 14:16:39;;;;;;;8.30;4.05;;;;;;;;;;4973064;28;20034;-72
2022/10/24 14:19:24;;;;;;;7.55;3.72;;;;;;;;;;4974264;28;20394;-72
2022/10/24 14:21:50;;;;;;;3.40;2.63;;;;;;;;;;4974089;28;20031;-74
2022/10/24 14:24:17;;;;;;;6.38;3.40;;;;;;;;;;4974452;28;20551;-72
2022/10/24 14:26:44;;;;;;;4.93;3.00;;;;;;;;;;4973862;28;20070;-73
2022/10/24 14:29:30;;;;;;;3.72;2.55;;;;;;;;;;4974856;28;20441;-73
2022/10/24 14:32:00;;;;;;;3.83;2.67;;;;;;;;;;4974990;28;20042;-72
2022/10/24 14:34:26;;;;;;;4.47;3.23;;;;;;;;;;4974777;28;20026;-73
2022/10/24 14:36:52;;;;;;;3.55;3.25;;;;;;;;;;4975027;28;20349;-72
2022/10/24 14:39:25;;;;;;;3.50;2.47;;;;;;;;;;4974492;28;20106;-72
2022/10/24 14:41:51;;;;;;;3.97;3.58;;;;;;;;;;4967865;28;20043;-73
2022/10/24 14:44:17;;;;;;;3.58;3.28;;;;;;;;;;4954828;29;20054;-74
2022/10/24 14:46:44;;;;;;;6.22;3.13;;;;;;;;;;4936677;29;20039;-73
2022/10/24 14:49:19;;;;;;;5.50;3.42;;;;;;;;;;4954724;29;20055;-73
2022/10/24 14:51:44;;;;;;;5.32;3.25;;;;;;;;;;4938048;29;20039;-73